createdAt,value
2022-11-19T00:01:04.255Z,-1.89
2022-11-19T00:03:35.072Z,-2.00
2022-11-19T00:06:06.943Z,-1.85
2022-11-19T00:08:35.326Z,-1.79
2022-11-19T00:11:09.689Z,-1.89
2022-11-19T00:13:37.266Z,-1.89
2022-11-19T00:16:06.278Z,-1.78
2022-11-19T00:18:36.270Z,-1.80
2022-11-19T00:21:05.929Z,-1.78
2022-11-19T00:23:34.193Z,-1.65
2022-11-19T00:26:07.392Z,-1.57
2022-11-19T00:28:35.759Z,-1.50
2022-11-19T00:31:05.375Z,-1.63
2022-11-19T00:33:35.067Z,-1.81
2022-11-19T00:36:03.354Z,-1.73
2022-11-19T00:38:31.721Z,-1.66
2022-11-19T00:41:00.046Z,-1.84
2022-11-19T00:43:45.875Z,-1.75
2022-11-19T00:46:14.286Z,-1.80
2022-11-19T00:48:44.049Z,-1.95
2022-11-19T00:51:12.423Z,-2.01
2022-11-19T00:53:40.739Z,-1.94
2022-11-19T00:56:10.090Z,-2.05
2022-11-19T00:58:38.734Z,-1.95
2022-11-19T01:01:08.519Z,-1.94
2022-11-19T01:03:37.050Z,-2.02
2022-11-19T01:06:07.018Z,-2.07
2022-11-19T01:08:35.526Z,-1.96
2022-11-19T01:11:07.763Z,-1.85
2022-11-19T01:13:36.394Z,-1.88
2022-11-19T01:16:06.680Z,-1.96
2022-11-19T01:18:35.049Z,-1.87
2022-11-19T01:21:03.321Z,-1.85
2022-11-19T01:23:33.498Z,-1.90
2022-11-19T01:26:02.124Z,-1.87
2022-11-19T01:28:30.414Z,-1.94
2022-11-19T01:30:58.725Z,-2.24
2022-11-19T01:33:27.369Z,-2.29
2022-11-19T01:35:59.623Z,-2.10
2022-11-19T01:38:27.981Z,-1.95
2022-11-19T01:40:58.021Z,-2.01
2022-11-19T01:43:41.327Z,-2.14
2022-11-19T01:46:09.866Z,-2.41
2022-11-19T01:48:39.136Z,-2.41
2022-11-19T01:51:11.437Z,-2.32
2022-11-19T01:53:41.018Z,-2.28
2022-11-19T01:56:10.924Z,-2.33
2022-11-19T01:58:40.419Z,-2.45
2022-11-19T02:01:09.213Z,-2.32
2022-11-19T02:03:37.787Z,-2.21
2022-11-19T02:06:06.332Z,-2.29
2022-11-19T02:08:42.579Z,-2.27
2022-11-19T02:11:25.028Z,-2.29
2022-11-19T02:13:56.143Z,-2.26
2022-11-19T02:16:26.851Z,-2.33
2022-11-19T02:18:56.569Z,-2.25
2022-11-19T02:21:31.989Z,-2.31
2022-11-19T02:24:22.469Z,-2.35
2022-11-19T02:27:39.854Z,-2.38
2022-11-19T02:30:11.433Z,-2.32
2022-11-19T02:32:49.474Z,-2.30
2022-11-19T02:35:20.713Z,-2.34
2022-11-19T02:37:51.007Z,-2.51
2022-11-19T02:40:22.350Z,-2.40
2022-11-19T02:42:54.063Z,-2.42
2022-11-19T02:45:25.885Z,-2.36
2022-11-19T02:47:56.493Z,-2.20
2022-11-19T02:50:26.734Z,-2.28
2022-11-19T02:52:55.276Z,-2.32
2022-11-19T02:55:23.800Z,-2.41
2022-11-19T02:57:54.158Z,-2.39
2022-11-19T03:00:40.295Z,-2.22
2022-11-19T03:03:29.099Z,-2.08
2022-11-19T03:06:01.478Z,-2.13
2022-11-19T03:08:30.040Z,-2.08
2022-11-19T03:11:05.509Z,-2.05
2022-11-19T03:13:55.936Z,-2.09
2022-11-19T03:16:42.795Z,-2.14
2022-11-19T03:19:24.799Z,-2.11
2022-11-19T03:21:55.834Z,-2.06
2022-11-19T03:24:26.902Z,-2.07
2022-11-19T03:26:57.080Z,-2.17
2022-11-19T03:29:25.442Z,-2.13
2022-11-19T03:31:58.104Z,-2.18
2022-11-19T03:34:27.833Z,-2.11
2022-11-19T03:36:57.473Z,-2.21
2022-11-19T03:39:25.795Z,-2.14
2022-11-19T03:41:54.368Z,-2.06
2022-11-19T03:44:26.113Z,-2.04
2022-11-19T03:46:56.172Z,-2.08
2022-11-19T03:49:28.898Z,-2.04
2022-11-19T03:51:58.613Z,-2.02
2022-11-19T03:54:26.976Z,-2.07
2022-11-19T03:56:55.218Z,-2.13
2022-11-19T03:59:29.314Z,-2.05
2022-11-19T04:01:58.816Z,-2.22
2022-11-19T04:04:38.219Z,-2.40
2022-11-19T04:07:11.246Z,-2.37
2022-11-19T04:09:39.670Z,-2.32
2022-11-19T04:12:09.150Z,-2.39
2022-11-19T04:14:37.492Z,-2.41
2022-11-19T04:17:05.800Z,-2.47
2022-11-19T04:19:35.612Z,-2.48
2022-11-19T04:22:04.092Z,-2.65
2022-11-19T04:24:32.404Z,-2.56
2022-11-19T04:27:01.098Z,-2.62
2022-11-19T04:29:29.437Z,-2.58
2022-11-19T04:31:57.724Z,-2.49
2022-11-19T04:34:33.978Z,-2.49
2022-11-19T04:37:03.883Z,-2.42
2022-11-19T04:39:32.519Z,-2.54
2022-11-19T04:42:00.917Z,-2.44
2022-11-19T04:44:30.491Z,-2.54
2022-11-19T04:46:59.865Z,-2.54
2022-11-19T04:49:28.154Z,-2.43
2022-11-19T04:51:56.576Z,-2.42
2022-11-19T04:54:26.574Z,-2.67
2022-11-19T04:56:54.890Z,-2.76
2022-11-19T04:59:23.170Z,-2.65
2022-11-19T05:01:51.508Z,-2.51
2022-11-19T05:04:19.912Z,-2.47
2022-11-19T05:06:48.209Z,-2.47
2022-11-19T05:09:17.148Z,-2.48
2022-11-19T05:11:47.452Z,-2.46
2022-11-19T05:14:15.741Z,-2.45
2022-11-19T05:16:44.039Z,-2.44
2022-11-19T05:19:12.389Z,-2.54
2022-11-19T05:21:40.965Z,-2.55
2022-11-19T05:24:09.952Z,-2.66
2022-11-19T05:26:38.603Z,-2.56
2022-11-19T05:29:08.358Z,-2.49
2022-11-19T05:31:36.618Z,-2.45
2022-11-19T05:34:04.909Z,-2.53
2022-11-19T05:36:33.492Z,-2.52
2022-11-19T05:39:01.778Z,-2.51
2022-11-19T05:41:30.068Z,-2.53
2022-11-19T05:44:00.127Z,-2.45
2022-11-19T05:46:30.191Z,-2.47
2022-11-19T05:48:58.468Z,-2.49
2022-11-19T05:51:26.788Z,-2.49
2022-11-19T05:53:55.121Z,-2.49
2022-11-19T05:56:23.393Z,-2.48
2022-11-19T05:58:51.759Z,-2.50
2022-11-19T06:01:25.991Z,-2.54
2022-11-19T06:03:56.000Z,-2.54
2022-11-19T06:06:25.574Z,-2.55
2022-11-19T06:08:56.816Z,-2.55
2022-11-19T06:11:41.933Z,-2.57
2022-11-19T06:14:10.230Z,-2.58
2022-11-19T06:16:38.760Z,-2.57
2022-11-19T06:19:08.497Z,-2.55
2022-11-19T06:21:36.973Z,-2.63
2022-11-19T06:24:05.694Z,-2.61
2022-11-19T06:26:34.018Z,-2.59
2022-11-19T06:29:02.999Z,-2.59
2022-11-19T06:31:31.605Z,-2.57
2022-11-19T06:33:59.965Z,-2.53
2022-11-19T06:36:34.929Z,-2.55
2022-11-19T06:39:07.595Z,-2.50
2022-11-19T06:41:35.989Z,-2.49
2022-11-19T06:44:04.805Z,-2.53
2022-11-19T06:46:33.171Z,-2.54
2022-11-19T06:49:02.375Z,-2.50
2022-11-19T06:51:32.122Z,-2.51
2022-11-19T06:54:00.414Z,-2.55
2022-11-19T06:56:28.712Z,-2.55
2022-11-19T06:58:58.711Z,-2.55
2022-11-19T07:01:27.101Z,-2.55
2022-11-19T07:03:55.410Z,-2.52
2022-11-19T07:06:23.773Z,-2.43
2022-11-19T07:08:53.464Z,-2.41
2022-11-19T07:11:27.995Z,-2.37
2022-11-19T07:13:59.897Z,-2.37
2022-11-19T07:16:32.390Z,-2.36
2022-11-19T07:19:00.832Z,-2.40
2022-11-19T07:21:29.560Z,-2.39
2022-11-19T07:23:59.816Z,-2.51
2022-11-19T07:26:28.197Z,-2.48
2022-11-19T07:29:00.513Z,-2.40
2022-11-19T07:31:31.681Z,-2.33
2022-11-19T07:34:00.001Z,-2.25
2022-11-19T07:36:28.256Z,-2.20
2022-11-19T07:39:00.036Z,-2.22
2022-11-19T07:41:46.003Z,-2.18
2022-11-19T07:44:14.268Z,-2.12
2022-11-19T07:46:42.537Z,-2.08
2022-11-19T07:49:10.827Z,-2.14
2022-11-19T07:51:39.485Z,-2.07
2022-11-19T07:54:10.284Z,-2.02
2022-11-19T07:56:38.558Z,-2.02
2022-11-19T07:59:06.813Z,-1.99
2022-11-19T08:01:35.168Z,-1.91
2022-11-19T08:04:05.237Z,-1.87
2022-11-19T08:06:34.752Z,-1.80
2022-11-19T08:09:05.915Z,-1.76
2022-11-19T08:11:35.722Z,-1.74
2022-11-19T08:14:04.023Z,-1.69
2022-11-19T08:16:51.269Z,-1.62
2022-11-19T08:19:20.285Z,-1.58
2022-11-19T08:21:49.125Z,-1.58
2022-11-19T08:24:18.739Z,-1.51
2022-11-19T08:26:48.845Z,-1.51
2022-11-19T08:29:17.705Z,-1.57
2022-11-19T08:31:47.548Z,-1.55
2022-11-19T08:34:15.953Z,-1.53
2022-11-19T08:36:44.293Z,-1.42
2022-11-19T08:39:12.778Z,-1.37
2022-11-19T08:41:58.470Z,-1.31
2022-11-19T08:44:28.242Z,-1.55
2022-11-19T08:46:56.565Z,-1.66
2022-11-19T08:49:24.859Z,-1.55
2022-11-19T08:51:53.444Z,-1.41
2022-11-19T08:54:22.276Z,-1.34
2022-11-19T08:56:50.803Z,-1.34
2022-11-19T08:59:21.974Z,-1.29
2022-11-19T09:01:51.929Z,-1.24
2022-11-19T09:04:20.598Z,-1.15
2022-11-19T09:06:49.073Z,-1.19
2022-11-19T09:09:17.896Z,-1.15
2022-11-19T09:11:46.480Z,-1.23
2022-11-19T09:14:14.798Z,-1.25
2022-11-19T09:16:43.359Z,-1.15
2022-11-19T09:19:13.038Z,-1.07
2022-11-19T09:21:41.344Z,-1.03
2022-11-19T09:24:09.789Z,-1.05
2022-11-19T09:26:39.388Z,-1.05
2022-11-19T09:29:07.737Z,-0.98
2022-11-19T09:31:36.065Z,-0.97
2022-11-19T09:34:04.374Z,-0.96
2022-11-19T09:36:34.195Z,-0.99
2022-11-19T09:39:03.753Z,-0.97
2022-11-19T09:41:45.138Z,-1.04
2022-11-19T09:44:34.409Z,-0.97
2022-11-19T09:47:08.428Z,-0.87
2022-11-19T09:49:40.945Z,-0.83
2022-11-19T09:52:13.746Z,-0.82
2022-11-19T09:54:45.817Z,-0.82
2022-11-19T09:57:16.335Z,-0.76
2022-11-19T09:59:47.502Z,-0.75
2022-11-19T10:02:18.415Z,-0.72
2022-11-19T10:04:47.032Z,-0.72
2022-11-19T10:07:20.695Z,-0.64
2022-11-19T10:10:01.150Z,-0.57
2022-11-19T10:12:39.253Z,-0.52
2022-11-19T10:15:19.920Z,-0.50
2022-11-19T10:17:54.968Z,-0.47
2022-11-19T10:20:35.724Z,-0.47
2022-11-19T10:23:10.040Z,-0.48
2022-11-19T10:25:39.729Z,-0.42
2022-11-19T10:28:11.195Z,-0.37
2022-11-19T10:30:40.876Z,-0.32
2022-11-19T10:33:13.528Z,-0.37
2022-11-19T10:35:44.171Z,-0.41
2022-11-19T10:38:17.883Z,-0.36
2022-11-19T10:40:47.983Z,-0.43
2022-11-19T10:43:23.169Z,-0.38
2022-11-19T10:45:52.055Z,-0.33
2022-11-19T10:48:21.614Z,-0.38
2022-11-19T10:50:49.970Z,-0.49
2022-11-19T10:53:21.466Z,-0.49
2022-11-19T10:55:54.421Z,-0.52
2022-11-19T10:58:24.722Z,-0.51
2022-11-19T11:00:55.106Z,-0.40
2022-11-19T11:03:25.311Z,-0.49
2022-11-19T11:05:58.648Z,-0.38
2022-11-19T11:08:28.438Z,-0.39
2022-11-19T11:10:56.808Z,-0.32
2022-11-19T11:14:03.378Z,-0.25
2022-11-19T11:16:43.316Z,-0.18
2022-11-19T11:19:14.309Z,-0.24
2022-11-19T11:21:43.750Z,-0.29
2022-11-19T11:24:13.839Z,-0.35
2022-11-19T11:26:42.511Z,-0.34
2022-11-19T11:29:26.162Z,-0.33
2022-11-19T11:31:54.778Z,-0.35
2022-11-19T11:34:34.001Z,-0.37
2022-11-19T11:37:02.973Z,-0.39
2022-11-19T11:39:33.707Z,-0.42
2022-11-19T11:42:06.579Z,-0.45
2022-11-19T11:44:36.293Z,-0.47
2022-11-19T11:47:11.796Z,-0.39
2022-11-19T11:49:41.325Z,-0.42
2022-11-19T11:52:23.563Z,-0.43
2022-11-19T11:54:58.057Z,-0.50
2022-11-19T11:57:27.160Z,-0.51
2022-11-19T12:00:01.928Z,-0.53
2022-11-19T12:02:33.716Z,-0.56
2022-11-19T12:05:03.364Z,-0.59
2022-11-19T12:07:59.327Z,-0.48
2022-11-19T12:10:31.253Z,-0.47
2022-11-19T12:13:24.381Z,-0.45
2022-11-19T12:15:55.850Z,-0.35
2022-11-19T12:18:27.861Z,-0.53
2022-11-19T12:20:59.205Z,-0.59
2022-11-19T12:23:34.693Z,-0.60
2022-11-19T12:26:12.808Z,-0.62
2022-11-19T12:28:54.293Z,-0.75
2022-11-19T12:31:30.153Z,-0.73
2022-11-19T12:34:26.952Z,-0.77
2022-11-19T12:36:58.047Z,-0.82
2022-11-19T12:39:34.322Z,-0.85
2022-11-19T12:42:27.306Z,-0.81
2022-11-19T12:44:59.119Z,-0.70
2022-11-19T12:47:34.926Z,-0.59
2022-11-19T12:50:17.425Z,-0.56
2022-11-19T12:53:14.056Z,-0.53
2022-11-19T12:55:48.514Z,-0.48
2022-11-19T12:58:27.156Z,-0.58
2022-11-19T13:00:57.086Z,-0.46
2022-11-19T13:03:29.251Z,-0.42
2022-11-19T13:05:59.050Z,-0.53
2022-11-19T13:08:31.452Z,-0.53
2022-11-19T13:11:05.223Z,-0.57
2022-11-19T13:13:35.789Z,-0.61
2022-11-19T13:16:05.662Z,-0.72
2022-11-19T13:18:40.818Z,-0.61
2022-11-19T13:21:09.631Z,-0.75
2022-11-19T13:23:39.411Z,-0.70
2022-11-19T13:26:10.677Z,-0.72
2022-11-19T13:28:51.777Z,-0.85
2022-11-19T13:31:37.804Z,-0.89
2022-11-19T13:34:14.498Z,-0.80
2022-11-19T13:36:44.208Z,-0.81
2022-11-19T13:39:15.427Z,-0.87
2022-11-19T13:41:58.716Z,-0.75
2022-11-19T13:44:41.613Z,-0.70
2022-11-19T13:47:12.645Z,-0.75
2022-11-19T13:49:41.989Z,-0.99
2022-11-19T13:52:11.191Z,-0.84
2022-11-19T13:54:40.734Z,-0.77
2022-11-19T13:57:09.702Z,-0.76
2022-11-19T13:59:40.221Z,-0.77
2022-11-19T14:02:48.454Z,-0.92
2022-11-19T14:05:50.091Z,-1.05
2022-11-19T14:08:24.930Z,-1.16
2022-11-19T14:11:04.391Z,-1.12
2022-11-19T14:13:51.429Z,-1.07
2022-11-19T14:16:42.505Z,-1.03
2022-11-19T14:19:31.259Z,-1.05
2022-11-19T14:22:17.614Z,-1.08
2022-11-19T14:25:13.628Z,-1.16
2022-11-19T14:27:42.226Z,-1.21
2022-11-19T14:30:15.076Z,-1.29
2022-11-19T14:32:47.580Z,-1.34
2022-11-19T14:35:43.248Z,-1.38
2022-11-19T14:38:34.621Z,-1.41
2022-11-19T14:41:09.434Z,-1.42
2022-11-19T14:44:07.907Z,-1.50
2022-11-19T14:46:37.142Z,-1.55
2022-11-19T14:49:15.121Z,-1.53
2022-11-19T14:51:43.723Z,-1.52
2022-11-19T14:54:31.544Z,-1.57
2022-11-19T14:57:06.910Z,-1.63
2022-11-19T14:59:37.877Z,-1.70
2022-11-19T15:02:26.548Z,-1.75
2022-11-19T15:04:59.373Z,-1.83
2022-11-19T15:07:36.270Z,-1.90
2022-11-19T15:10:27.556Z,-1.95
2022-11-19T15:13:26.409Z,-1.99
2022-11-19T15:15:57.441Z,-1.98
2022-11-19T15:18:54.253Z,-2.11
2022-11-19T15:21:42.242Z,-2.22
2022-11-19T15:24:15.312Z,-2.28
2022-11-19T15:26:46.885Z,-2.33
2022-11-19T15:29:17.170Z,-2.39
2022-11-19T15:31:53.836Z,-2.41
2022-11-19T15:35:09.799Z,-2.47
2022-11-19T15:37:44.251Z,-2.61
2022-11-19T15:40:14.020Z,-2.70
2022-11-19T15:42:46.231Z,-2.81
2022-11-19T15:45:16.980Z,-2.86
2022-11-19T15:47:47.091Z,-2.95
2022-11-19T15:50:16.693Z,-2.97
2022-11-19T15:53:02.284Z,-3.01
2022-11-19T15:55:32.058Z,-3.07
2022-11-19T15:58:02.162Z,-3.15
2022-11-19T16:00:30.470Z,-3.19
2022-11-19T16:02:58.786Z,-3.19
2022-11-19T16:05:28.175Z,-3.15
2022-11-19T16:07:56.487Z,-3.22
2022-11-19T16:10:30.157Z,-3.34
2022-11-19T16:13:16.321Z,-3.41
2022-11-19T16:16:05.271Z,-3.51
2022-11-19T16:18:35.172Z,-3.57
2022-11-19T16:21:03.508Z,-3.62
2022-11-19T16:23:52.218Z,-3.66
2022-11-19T16:26:21.973Z,-3.70
2022-11-19T16:28:51.115Z,-3.77
2022-11-19T16:31:19.436Z,-3.83
2022-11-19T16:33:48.240Z,-3.87
2022-11-19T16:36:17.850Z,-3.91
2022-11-19T16:38:47.927Z,-3.97
2022-11-19T16:41:34.340Z,-4.01
2022-11-19T16:44:06.252Z,-4.05
2022-11-19T16:46:37.705Z,-4.08
2022-11-19T16:49:06.238Z,-4.10
2022-11-19T16:51:39.154Z,-4.12
2022-11-19T16:54:08.958Z,-4.17
2022-11-19T16:56:39.512Z,-4.24
2022-11-19T16:59:09.283Z,-4.28
2022-11-19T17:01:37.686Z,-4.31
2022-11-19T17:04:08.251Z,-4.35
2022-11-19T17:06:38.054Z,-4.41
2022-11-19T17:09:06.986Z,-4.41
2022-11-19T17:12:06.059Z,-4.44
2022-11-19T17:14:49.981Z,-4.45
2022-11-19T17:17:42.439Z,-4.49
2022-11-19T17:21:01.296Z,-4.58
2022-11-19T17:23:30.860Z,-4.62
2022-11-19T17:25:59.914Z,-4.66
2022-11-19T17:28:31.507Z,-4.67
2022-11-19T17:31:01.566Z,-4.68
2022-11-19T17:33:35.323Z,-4.70
2022-11-19T17:36:05.294Z,-4.71
2022-11-19T17:38:33.564Z,-4.74
2022-11-19T17:41:02.625Z,-4.80
2022-11-19T17:43:50.139Z,-4.82
2022-11-19T17:46:20.151Z,-4.87
2022-11-19T17:48:49.104Z,-4.87
2022-11-19T17:51:19.239Z,-4.88
2022-11-19T17:53:47.816Z,-4.93
2022-11-19T17:56:19.355Z,-4.98
2022-11-19T17:58:48.104Z,-5.00
2022-11-19T18:01:16.699Z,-5.04
2022-11-19T18:03:46.534Z,-5.08
2022-11-19T18:06:15.611Z,-5.09
2022-11-19T18:08:46.244Z,-5.13
2022-11-19T18:11:17.296Z,-5.20
2022-11-19T18:13:46.662Z,-5.27
2022-11-19T18:16:15.805Z,-5.31
2022-11-19T18:18:45.076Z,-5.32
2022-11-19T18:21:15.742Z,-5.30
2022-11-19T18:23:44.592Z,-5.32
2022-11-19T18:26:13.418Z,-5.36
2022-11-19T18:28:43.816Z,-5.37
2022-11-19T18:31:16.429Z,-5.36
2022-11-19T18:33:45.491Z,-5.36
2022-11-19T18:36:15.225Z,-5.40
2022-11-19T18:38:43.826Z,-5.42
2022-11-19T18:41:12.428Z,-5.43
2022-11-19T18:43:58.223Z,-5.47
2022-11-19T18:46:26.624Z,-5.49
2022-11-19T18:48:56.815Z,-5.45
2022-11-19T18:51:31.404Z,-5.45
2022-11-19T18:53:59.813Z,-5.46
2022-11-19T18:56:28.136Z,-5.48
2022-11-19T18:59:00.459Z,-5.53
2022-11-19T19:01:32.915Z,-5.53
2022-11-19T19:04:02.088Z,-5.51
2022-11-19T19:06:32.246Z,-5.53
2022-11-19T19:09:00.627Z,-5.52
2022-11-19T19:11:46.569Z,-5.56
2022-11-19T19:14:15.149Z,-5.62
2022-11-19T19:16:43.532Z,-5.64
2022-11-19T19:19:16.458Z,-5.67
2022-11-19T19:21:46.202Z,-5.70
2022-11-19T19:24:14.578Z,-5.68
2022-11-19T19:26:42.933Z,-5.66
2022-11-19T19:29:11.413Z,-5.66
2022-11-19T19:31:40.096Z,-5.67
2022-11-19T19:34:08.500Z,-5.74
2022-11-19T19:36:36.907Z,-5.78
2022-11-19T19:39:06.965Z,-5.77
2022-11-19T19:41:35.242Z,-5.79
2022-11-19T19:44:07.121Z,-5.80
2022-11-19T19:46:35.898Z,-5.83
2022-11-19T19:49:04.318Z,-5.84
2022-11-19T19:51:32.916Z,-5.86
2022-11-19T19:54:01.458Z,-5.88
2022-11-19T19:56:31.764Z,-5.87
2022-11-19T19:59:01.609Z,-5.86
2022-11-19T20:01:30.680Z,-5.87
2022-11-19T20:04:01.732Z,-5.85
2022-11-19T20:06:30.282Z,-5.87
2022-11-19T20:08:58.583Z,-5.87
2022-11-19T20:11:27.148Z,-5.86
2022-11-19T20:13:57.609Z,-5.89
2022-11-19T20:16:26.635Z,-5.89
2022-11-19T20:18:55.554Z,-5.90
2022-11-19T20:21:24.930Z,-5.90
2022-11-19T20:23:54.054Z,-5.90
2022-11-19T20:26:23.281Z,-5.94
2022-11-19T20:28:57.274Z,-6.02
2022-11-19T20:31:25.631Z,-6.07
2022-11-19T20:33:55.151Z,-6.10
2022-11-19T20:36:24.633Z,-6.12
2022-11-19T20:38:53.203Z,-6.13
2022-11-19T20:41:39.783Z,-6.15
2022-11-19T20:44:23.387Z,-6.18
2022-11-19T20:46:52.968Z,-6.22
2022-11-19T20:49:23.181Z,-6.25
2022-11-19T20:51:52.751Z,-6.24
2022-11-19T20:54:21.713Z,-6.24
2022-11-19T20:56:50.087Z,-6.26
2022-11-19T20:59:20.333Z,-6.30
2022-11-19T21:01:49.375Z,-6.30
2022-11-19T21:04:17.775Z,-6.35
2022-11-19T21:06:46.321Z,-6.38
2022-11-19T21:09:16.018Z,-6.43
2022-11-19T21:11:44.451Z,-6.42
2022-11-19T21:14:12.749Z,-6.33
2022-11-19T21:16:42.490Z,-6.38
2022-11-19T21:19:10.954Z,-6.41
2022-11-19T21:21:39.697Z,-6.46
2022-11-19T21:24:09.259Z,-6.51
2022-11-19T21:26:37.565Z,-6.54
2022-11-19T21:29:05.944Z,-6.54
2022-11-19T21:31:42.462Z,-6.54
2022-11-19T21:34:12.907Z,-6.53
2022-11-19T21:36:41.947Z,-6.54
2022-11-19T21:39:10.438Z,-6.60
2022-11-19T21:41:38.871Z,-6.60
2022-11-19T21:44:07.215Z,-6.62
2022-11-19T21:46:35.641Z,-6.62
2022-11-19T21:49:04.168Z,-6.64
2022-11-19T21:51:33.923Z,-6.63
2022-11-19T21:54:02.236Z,-6.67
2022-11-19T21:56:35.434Z,-6.70
2022-11-19T21:59:05.479Z,-6.70
2022-11-19T22:01:34.117Z,-6.67
2022-11-19T22:04:02.448Z,-6.67
2022-11-19T22:06:31.240Z,-6.66
2022-11-19T22:09:01.188Z,-6.71
2022-11-19T22:11:32.605Z,-6.73
2022-11-19T22:14:02.252Z,-6.76
2022-11-19T22:16:31.158Z,-6.72
2022-11-19T22:18:59.524Z,-6.70
2022-11-19T22:21:29.216Z,-6.70
2022-11-19T22:23:57.777Z,-6.71
2022-11-19T22:26:27.736Z,-6.76
2022-11-19T22:28:56.452Z,-6.72
2022-11-19T22:31:25.214Z,-6.80
2022-11-19T22:33:53.978Z,-6.85
2022-11-19T22:36:22.581Z,-6.87
2022-11-19T22:38:51.269Z,-6.87
2022-11-19T22:41:20.603Z,-6.86
2022-11-19T22:43:50.644Z,-6.88
2022-11-19T22:46:19.209Z,-6.92
2022-11-19T22:48:47.558Z,-6.94
2022-11-19T22:51:16.874Z,-6.97
2022-11-19T22:53:45.274Z,-7.02
2022-11-19T22:56:14.708Z,-7.05
2022-11-19T22:58:43.177Z,-7.05
2022-11-19T23:01:17.682Z,-7.05
2022-11-19T23:03:46.338Z,-7.05
2022-11-19T23:06:14.694Z,-7.05
2022-11-19T23:08:43.121Z,-7.05
2022-11-19T23:11:11.659Z,-7.11
2022-11-19T23:13:41.063Z,-7.14
2022-11-19T23:16:10.138Z,-7.15
2022-11-19T23:18:40.859Z,-7.16
2022-11-19T23:21:10.297Z,-7.19
2022-11-19T23:23:39.016Z,-7.17
2022-11-19T23:26:08.539Z,-7.17
2022-11-19T23:28:38.894Z,-7.19
2022-11-19T23:31:07.730Z,-7.20
2022-11-19T23:33:36.063Z,-7.23
2022-11-19T23:36:06.695Z,-7.22
2022-11-19T23:38:35.924Z,-7.20
2022-11-19T23:41:04.364Z,-7.19
2022-11-19T23:43:32.726Z,-7.13
2022-11-19T23:46:04.594Z,-7.15
2022-11-19T23:48:32.981Z,-7.11
2022-11-19T23:51:02.948Z,-7.13
2022-11-19T23:53:33.063Z,-7.19
2022-11-19T23:56:01.386Z,-7.26
2022-11-19T23:58:29.668Z,-7.32
